PORT of AMRUM

Država: Germany Država: Germany (DE)
Širina / Dužina: 54.63226° / 8.392989° Prikaži na mapi Prikaži na mapi
Lokalno vreme:  UTC +2
UN/LOCODE: DEIAM
Plovilo je trenutno u luci: 3
Očekivani dolasci: 2

Skorašnji dolasci i odlasci


Ime plovila
Dolazak (UTC)
Dolazak (LT)
Odlazak (UTC)
Odlazak (LT)
Vessel Type: Putnički brodovi  ADLER IV 2014-09-16 09:39:00 2014-09-16 11:39:00 2014-09-16 09:55:00 2014-09-16 11:55:00
Vessel Type: Jahte i drugi  LUMME 2014-09-16 07:57:00 2014-09-16 09:57:00 2014-09-16 09:36:00 2014-09-16 11:36:00
Vessel Type: Putnički brodovi  SCHLESWIG HOLSTEIN 2014-09-16 09:32:00 2014-09-16 11:32:00
Vessel Type: Remorker, Pilot  VORMANN LEISS 2014-09-16 09:22:00 2014-09-16 11:22:00
Vessel Type: Brod velike brzine  ADLER EXPRESS 2014-09-16 08:49:00 2014-09-16 10:49:00 2014-09-16 09:13:00 2014-09-16 11:13:00
Vessel Type: Putnički brodovi  RUNGHOLT 2014-09-16 07:08:00 2014-09-16 09:08:00 2014-09-16 07:41:00 2014-09-16 09:41:00
Vessel Type: Remorker, Pilot  VORMANN LEISS 2014-09-12 15:33:00 2014-09-12 17:33:00 2014-09-16 06:37:00 2014-09-16 08:37:00
Vessel Type: Jahte i drugi  LUMME 2014-09-04 11:04:00 2014-09-04 13:04:00 2014-09-16 05:39:00 2014-09-16 07:39:00
Vessel Type: Putnički brodovi  SCHLESWIG HOLSTEIN 2014-09-16 04:58:00 2014-09-16 06:58:00 2014-09-16 05:22:00 2014-09-16 07:22:00
Vessel Type: Putnički brodovi  UTHLANDE 2014-09-15 17:51:00 2014-09-15 19:51:00 2014-09-16 04:08:00 2014-09-16 06:08:00

Očekivani dolasci


Ime plovila
Scheduled Arrival (UTC)
Planirani dolazak (lokalno vreme)
Procenjeno vreme dolaska (UTC)
Procenjeno vreme dolaska (lokalno)
Vessel Type: Teretno plovilo  CORUS 1 2014-09-16 20:14:00 2014-09-16 22:14:00
Vessel Type: Teretno plovilo  OMSKIY 207 2014-09-17 17:00:00 2014-09-17 19:00:00

Wind Forecast


    
Vreme (UTC)
Brzina
Direction
Temperature
2014-09-16 09:00:00 17 knots 95° 18°C
2014-09-16 12:00:00 16 knots 106° 20°C
2014-09-16 15:00:00 17 knots 102° 20°C
2014-09-16 18:00:00 20 knots 96° 19°C
2014-09-16 21:00:00 22 knots 96° 17°C
2014-09-17 00:00:00 20 knots 92° 16°C
2014-09-17 03:00:00 19 knots 93° 16°C
2014-09-17 06:00:00 18 knots 92° 16°C
2014-09-17 09:00:00 16 knots 88° 17°C
2014-09-17 12:00:00 13 knots 91° 20°C
2014-09-17 15:00:00 15 knots 95° 21°C
2014-09-17 18:00:00 17 knots 96° 20°C
2014-09-17 21:00:00 18 knots 100° 18°C
2014-09-18 00:00:00 17 knots 98° 17°C
2014-09-18 03:00:00 17 knots 95° 17°C
2014-09-18 06:00:00 18 knots 92° 16°C
2014-09-18 09:00:00 16 knots 89° 18°C